createdAt,value
2022-11-24T00:01:21.004Z,-0.84
2022-11-24T00:03:55.033Z,-0.86
2022-11-24T00:06:23.619Z,-0.88
2022-11-24T00:08:52.286Z,-0.89
2022-11-24T00:11:26.443Z,-0.89
2022-11-24T00:13:54.693Z,-0.91
2022-11-24T00:16:25.065Z,-0.94
2022-11-24T00:18:55.208Z,-1.00
2022-11-24T00:21:23.822Z,-1.02
2022-11-24T00:23:52.160Z,-1.03
2022-11-24T00:26:22.650Z,-1.01
2022-11-24T00:28:53.395Z,-0.99
2022-11-24T00:31:32.766Z,-0.96
2022-11-24T00:34:03.723Z,-0.96
2022-11-24T00:36:34.293Z,-0.91
2022-11-24T00:39:08.338Z,-0.87
2022-11-24T00:41:35.976Z,-0.83
2022-11-24T00:44:04.175Z,-0.82
2022-11-24T00:46:32.039Z,-0.80
2022-11-24T00:49:02.619Z,-0.79
2022-11-24T00:51:30.931Z,-0.80
2022-11-24T00:53:59.956Z,-0.82
2022-11-24T00:56:29.544Z,-0.83
2022-11-24T00:58:57.344Z,-0.87
2022-11-24T01:01:27.850Z,-0.95
2022-11-24T01:03:56.486Z,-0.98
2022-11-24T01:06:26.125Z,-1.03
2022-11-24T01:08:54.231Z,-1.06
2022-11-24T01:11:28.422Z,-1.12
2022-11-24T01:13:58.665Z,-1.15
2022-11-24T01:16:31.205Z,-1.15
2022-11-24T01:18:59.084Z,-1.10
2022-11-24T01:21:27.154Z,-1.09
2022-11-24T01:23:54.746Z,-1.09
2022-11-24T01:26:23.145Z,-1.07
2022-11-24T01:28:55.436Z,-1.07
2022-11-24T01:31:24.164Z,-1.09
2022-11-24T01:33:52.398Z,-1.08
2022-11-24T01:36:20.399Z,-1.09
2022-11-24T01:38:48.285Z,-1.11
2022-11-24T01:41:24.542Z,-1.10
2022-11-24T01:43:54.086Z,-1.12
2022-11-24T01:46:21.679Z,-1.11
2022-11-24T01:49:01.744Z,-1.10
2022-11-24T01:51:33.602Z,-1.07
2022-11-24T01:54:07.122Z,-1.07
2022-11-24T01:56:40.273Z,-1.08
2022-11-24T01:59:11.790Z,-1.09
2022-11-24T02:01:40.221Z,-1.06
2022-11-24T02:04:12.792Z,-1.01
2022-11-24T02:06:43.716Z,-0.98
2022-11-24T02:09:19.123Z,-1.01
2022-11-24T02:11:47.209Z,-1.04
2022-11-24T02:14:17.959Z,-1.10
2022-11-24T02:16:49.980Z,-1.12
2022-11-24T02:19:39.372Z,-1.12
2022-11-24T02:22:31.316Z,-1.18
2022-11-24T02:25:18.001Z,-1.22
2022-11-24T02:27:50.707Z,-1.19
2022-11-24T02:30:22.327Z,-1.15
2022-11-24T02:32:51.200Z,-1.08
2022-11-24T02:35:20.396Z,-1.05
2022-11-24T02:37:48.577Z,-0.99
2022-11-24T02:40:22.995Z,-0.89
2022-11-24T02:42:54.720Z,-0.85
2022-11-24T02:45:24.161Z,-0.86
2022-11-24T02:47:51.842Z,-0.90
2022-11-24T02:50:19.736Z,-0.94
2022-11-24T02:52:47.298Z,-0.91
2022-11-24T02:55:15.000Z,-0.93
2022-11-24T02:57:42.822Z,-0.99
2022-11-24T03:00:11.689Z,-1.02
2022-11-24T03:02:40.479Z,-1.00
2022-11-24T03:05:08.810Z,-1.00
2022-11-24T03:07:36.463Z,-1.00
2022-11-24T03:10:04.860Z,-0.96
2022-11-24T03:12:32.463Z,-0.95
2022-11-24T03:15:00.043Z,-0.92
2022-11-24T03:17:27.849Z,-0.89
2022-11-24T03:19:58.027Z,-0.86
2022-11-24T03:22:29.096Z,-0.79
2022-11-24T03:24:56.770Z,-0.72
2022-11-24T03:27:24.337Z,-0.71
2022-11-24T03:29:51.915Z,-0.66
2022-11-24T03:32:19.705Z,-0.62
2022-11-24T03:34:47.333Z,-0.61
2022-11-24T03:37:15.358Z,-0.62
2022-11-24T03:39:42.971Z,-0.63
2022-11-24T03:42:10.513Z,-0.65
2022-11-24T03:44:38.085Z,-0.69
2022-11-24T03:47:05.664Z,-0.76
2022-11-24T03:49:33.543Z,-0.83
2022-11-24T03:52:06.559Z,-0.84
2022-11-24T03:54:35.871Z,-0.83
2022-11-24T03:57:03.973Z,-0.82
2022-11-24T03:59:31.560Z,-0.80
2022-11-24T04:01:59.170Z,-0.79
2022-11-24T04:04:26.942Z,-0.79
2022-11-24T04:06:54.530Z,-0.78
2022-11-24T04:09:22.088Z,-0.72
2022-11-24T04:12:05.662Z,-0.67
2022-11-24T04:14:33.581Z,-0.65
2022-11-24T04:17:04.141Z,-0.66
2022-11-24T04:19:31.705Z,-0.70
2022-11-24T04:21:59.247Z,-0.75
2022-11-24T04:24:26.830Z,-0.84
2022-11-24T04:26:54.492Z,-0.93
2022-11-24T04:29:22.136Z,-0.99
2022-11-24T04:31:49.725Z,-1.01
2022-11-24T04:34:17.429Z,-0.99
2022-11-24T04:36:45.138Z,-0.96
2022-11-24T04:39:19.825Z,-0.96
2022-11-24T04:41:52.219Z,-0.96
2022-11-24T04:44:20.417Z,-0.92
2022-11-24T04:46:48.257Z,-0.84
2022-11-24T04:49:16.124Z,-0.79
2022-11-24T04:51:43.690Z,-0.79
2022-11-24T04:54:12.899Z,-0.83
2022-11-24T04:56:41.873Z,-0.83
2022-11-24T04:59:14.823Z,-0.88
2022-11-24T05:01:43.877Z,-0.90
2022-11-24T05:04:13.401Z,-0.96
2022-11-24T05:06:41.854Z,-0.97
2022-11-24T05:09:14.789Z,-0.98
2022-11-24T05:11:42.821Z,-0.97
2022-11-24T05:14:10.403Z,-0.94
2022-11-24T05:16:38.136Z,-0.92
2022-11-24T05:19:05.779Z,-0.92
2022-11-24T05:21:33.373Z,-0.91
2022-11-24T05:24:00.967Z,-0.87
2022-11-24T05:26:28.879Z,-0.81
2022-11-24T05:28:56.640Z,-0.82
2022-11-24T05:31:24.350Z,-0.79
2022-11-24T05:33:53.428Z,-0.75
2022-11-24T05:36:36.928Z,-0.73
2022-11-24T05:39:04.539Z,-0.72
2022-11-24T05:41:32.338Z,-0.73
2022-11-24T05:43:59.863Z,-0.72
2022-11-24T05:46:27.419Z,-0.69
2022-11-24T05:48:55.016Z,-0.65
2022-11-24T05:51:22.538Z,-0.62
2022-11-24T05:53:50.130Z,-0.60
2022-11-24T05:56:17.702Z,-0.57
2022-11-24T05:58:45.362Z,-0.53
2022-11-24T06:01:13.152Z,-0.52
2022-11-24T06:03:41.409Z,-0.50
2022-11-24T06:06:08.958Z,-0.46
2022-11-24T06:08:36.747Z,-0.42
2022-11-24T06:11:17.541Z,-0.40
2022-11-24T06:13:48.469Z,-0.39
2022-11-24T06:16:16.514Z,-0.37
2022-11-24T06:18:44.237Z,-0.36
2022-11-24T06:21:12.289Z,-0.32
2022-11-24T06:23:40.420Z,-0.31
2022-11-24T06:26:09.054Z,-0.33
2022-11-24T06:28:36.995Z,-0.34
2022-11-24T06:31:05.849Z,-0.37
2022-11-24T06:33:36.365Z,-0.39
2022-11-24T06:36:07.041Z,-0.42
2022-11-24T06:38:36.149Z,-0.40
2022-11-24T06:41:11.509Z,-0.33
2022-11-24T06:43:39.472Z,-0.27
2022-11-24T06:46:07.817Z,-0.23
2022-11-24T06:48:36.201Z,-0.15
2022-11-24T06:51:06.703Z,-0.10
2022-11-24T06:53:37.899Z,-0.12
2022-11-24T06:56:16.265Z,-0.10
2022-11-24T06:58:47.695Z,-0.08
2022-11-24T07:01:26.228Z,-0.14
2022-11-24T07:03:55.178Z,-0.17
2022-11-24T07:06:25.075Z,-0.17
2022-11-24T07:08:53.147Z,-0.19
2022-11-24T07:11:23.535Z,-0.21
2022-11-24T07:13:55.098Z,-0.24
2022-11-24T07:16:28.317Z,-0.26
2022-11-24T07:18:56.784Z,-0.30
2022-11-24T07:21:25.470Z,-0.30
2022-11-24T07:23:56.194Z,-0.28
2022-11-24T07:26:25.284Z,-0.26
2022-11-24T07:28:52.809Z,-0.20
2022-11-24T07:31:24.911Z,-0.08
2022-11-24T07:33:54.638Z,0.01
2022-11-24T07:36:25.648Z,0.06
2022-11-24T07:38:53.274Z,0.18
2022-11-24T07:41:21.282Z,0.22
2022-11-24T07:43:50.611Z,0.23
2022-11-24T07:46:19.434Z,0.25
2022-11-24T07:48:47.661Z,0.27
2022-11-24T07:51:15.865Z,0.25
2022-11-24T07:53:45.481Z,0.27
2022-11-24T07:56:13.332Z,0.27
2022-11-24T07:58:40.989Z,0.25
2022-11-24T08:01:14.513Z,0.23
2022-11-24T08:03:43.172Z,0.25
2022-11-24T08:06:32.294Z,0.25
2022-11-24T08:08:59.766Z,0.26
2022-11-24T08:11:27.633Z,0.29
2022-11-24T08:13:55.896Z,0.34
2022-11-24T08:16:23.521Z,0.35
2022-11-24T08:18:55.654Z,0.38
2022-11-24T08:21:24.082Z,0.42
2022-11-24T08:23:56.058Z,0.46
2022-11-24T08:26:25.500Z,0.47
2022-11-24T08:28:59.016Z,0.46
2022-11-24T08:31:33.587Z,0.47
2022-11-24T08:34:04.330Z,0.46
2022-11-24T08:36:33.552Z,0.49
2022-11-24T08:39:01.676Z,0.53
2022-11-24T08:41:30.357Z,0.54
2022-11-24T08:43:58.423Z,0.54
2022-11-24T08:46:26.108Z,0.57
2022-11-24T08:48:54.993Z,0.57
2022-11-24T08:51:26.061Z,0.62
2022-11-24T08:53:55.702Z,0.67
2022-11-24T08:56:24.522Z,0.75
2022-11-24T08:58:53.328Z,0.82
2022-11-24T09:01:23.685Z,0.92
2022-11-24T09:03:52.246Z,0.96
2022-11-24T09:06:23.632Z,0.97
2022-11-24T09:08:53.388Z,0.99
2022-11-24T09:11:21.717Z,1.04
2022-11-24T09:13:49.839Z,1.07
2022-11-24T09:16:20.442Z,1.11
2022-11-24T09:18:54.279Z,1.14
2022-11-24T09:21:22.698Z,1.15
2022-11-24T09:23:51.809Z,1.18
2022-11-24T09:26:25.444Z,1.20
2022-11-24T09:28:54.499Z,1.20
2022-11-24T09:31:28.275Z,1.16
2022-11-24T09:33:56.489Z,1.16
2022-11-24T09:36:24.628Z,1.17
2022-11-24T09:38:52.645Z,1.19
2022-11-24T09:41:52.106Z,1.19
2022-11-24T09:44:50.523Z,1.12
2022-11-24T09:47:49.993Z,1.19
2022-11-24T09:50:20.976Z,1.29
2022-11-24T09:53:12.435Z,1.41
2022-11-24T09:55:44.056Z,1.51
2022-11-24T09:58:33.742Z,1.54
2022-11-24T10:01:07.962Z,1.56
2022-11-24T10:03:43.247Z,1.59
2022-11-24T10:06:21.436Z,1.60
2022-11-24T10:09:05.077Z,1.60
2022-11-24T10:12:06.905Z,1.60
2022-11-24T10:14:50.526Z,1.54
2022-11-24T10:17:46.387Z,1.41
2022-11-24T10:20:30.386Z,1.31
2022-11-24T10:23:29.885Z,1.29
2022-11-24T10:26:01.448Z,1.31
2022-11-24T10:28:41.304Z,1.37
2022-11-24T10:31:28.153Z,1.45
2022-11-24T10:34:01.088Z,1.46
2022-11-24T10:36:45.440Z,1.54
2022-11-24T10:39:50.606Z,1.57
2022-11-24T10:42:26.004Z,1.60
2022-11-24T10:45:10.655Z,1.48
2022-11-24T10:47:39.377Z,1.42
2022-11-24T10:50:25.442Z,1.45
2022-11-24T10:53:11.561Z,1.45
2022-11-24T10:55:56.236Z,1.47
2022-11-24T10:58:37.270Z,1.48
2022-11-24T11:01:31.039Z,1.48
2022-11-24T11:03:59.885Z,1.50
2022-11-24T11:06:29.498Z,1.51
2022-11-24T11:09:19.436Z,1.51
2022-11-24T11:11:53.386Z,1.47
2022-11-24T11:14:36.453Z,1.45
2022-11-24T11:17:32.646Z,1.46
2022-11-24T11:20:17.721Z,1.44
2022-11-24T11:22:48.022Z,1.48
2022-11-24T11:25:22.672Z,1.47
2022-11-24T11:27:50.726Z,1.55
2022-11-24T11:36:11.771Z,1.48
2022-11-24T11:38:41.438Z,1.46
2022-11-24T11:41:20.715Z,1.46
2022-11-24T11:43:56.755Z,1.47
2022-11-24T11:46:28.905Z,1.48
2022-11-24T11:48:56.586Z,1.54
2022-11-24T11:51:52.073Z,1.59
2022-11-24T11:54:44.661Z,1.58
2022-11-24T11:57:44.293Z,1.47
2022-11-24T12:00:16.068Z,1.37
2022-11-24T12:02:54.272Z,1.32
2022-11-24T12:05:34.537Z,1.27
2022-11-24T12:08:16.020Z,1.31
2022-11-24T12:11:15.905Z,1.34
2022-11-24T12:14:06.321Z,1.41
2022-11-24T12:16:45.553Z,1.46
2022-11-24T12:19:29.105Z,1.46
2022-11-24T12:22:23.142Z,1.48
2022-11-24T12:25:12.431Z,1.51
2022-11-24T12:28:01.911Z,1.55
2022-11-24T12:30:49.378Z,1.48
2022-11-24T12:33:39.456Z,1.42
2022-11-24T12:36:38.949Z,1.39
2022-11-24T12:39:32.756Z,1.42
2022-11-24T12:42:22.004Z,1.47
2022-11-24T12:44:58.274Z,1.54
2022-11-24T12:47:49.280Z,1.62
2022-11-24T12:50:25.189Z,1.70
2022-11-24T12:53:13.749Z,1.77
2022-11-24T12:55:43.229Z,1.78
2022-11-24T12:58:26.845Z,1.81
2022-11-24T13:01:15.918Z,1.80
2022-11-24T13:03:55.162Z,1.78
2022-11-24T13:06:29.989Z,1.74
2022-11-24T13:08:57.857Z,1.66
2022-11-24T13:11:34.610Z,1.63
2022-11-24T13:14:12.614Z,1.59
2022-11-24T13:17:27.524Z,1.52
2022-11-24T13:19:40.288Z,1.44
2022-11-24T13:22:08.003Z,1.35
2022-11-24T13:24:38.356Z,1.32
2022-11-24T13:27:28.883Z,1.30
2022-11-24T13:29:56.558Z,1.33
2022-11-24T13:32:24.144Z,1.27
2022-11-24T13:34:54.954Z,1.24
2022-11-24T13:37:27.296Z,1.29
2022-11-24T13:40:31.034Z,1.37
2022-11-24T13:43:00.300Z,1.41
2022-11-24T13:45:45.185Z,1.40
2022-11-24T13:48:18.745Z,1.32
2022-11-24T13:50:58.304Z,1.20
2022-11-24T13:53:32.939Z,1.14
2022-11-24T13:56:17.418Z,1.09
2022-11-24T13:58:50.537Z,1.08
2022-11-24T14:01:26.071Z,1.03
2022-11-24T14:07:08.376Z,1.12
2022-11-24T14:09:47.958Z,1.14
2022-11-24T14:12:20.788Z,1.13
2022-11-24T14:14:50.543Z,1.09
2022-11-24T14:17:26.609Z,1.09
2022-11-24T14:19:59.305Z,1.16
2022-11-24T14:22:39.324Z,1.16
2022-11-24T14:25:21.316Z,1.16
2022-11-24T14:27:48.889Z,1.19
2022-11-24T14:30:22.985Z,1.17
2022-11-24T14:32:58.480Z,1.10
2022-11-24T14:35:34.981Z,1.03
2022-11-24T14:38:05.372Z,0.95
2022-11-24T14:41:13.252Z,0.92
2022-11-24T14:43:40.833Z,0.88
2022-11-24T14:46:17.586Z,0.85
2022-11-24T14:48:51.481Z,0.89
2022-11-24T14:51:26.424Z,0.92
2022-11-24T14:53:58.364Z,0.88
2022-11-24T14:56:36.184Z,0.95
2022-11-24T14:59:19.962Z,0.98
2022-11-24T15:01:47.578Z,1.05
2022-11-24T15:04:54.185Z,1.10
2022-11-24T15:07:23.646Z,1.04
2022-11-24T15:10:00.755Z,0.97
2022-11-24T15:12:34.243Z,0.84
2022-11-24T15:15:20.361Z,0.80
2022-11-24T15:17:51.052Z,0.73
2022-11-24T15:20:41.579Z,0.68
2022-11-24T15:23:18.712Z,0.63
2022-11-24T15:25:46.482Z,0.56
2022-11-24T15:28:14.070Z,0.54
2022-11-24T15:30:42.048Z,0.54
2022-11-24T15:33:15.472Z,0.56
2022-11-24T15:35:44.174Z,0.50
2022-11-24T15:38:12.593Z,0.43
2022-11-24T15:40:43.610Z,0.41
2022-11-24T15:43:19.171Z,0.38
2022-11-24T15:45:46.723Z,0.31
2022-11-24T15:48:17.930Z,0.25
2022-11-24T15:50:46.956Z,0.27
2022-11-24T15:53:24.497Z,0.30
2022-11-24T15:55:53.003Z,0.36
2022-11-24T15:58:20.496Z,0.41
2022-11-24T16:00:48.068Z,0.44
2022-11-24T16:03:45.827Z,0.43
2022-11-24T16:06:03.246Z,0.42
2022-11-24T16:08:30.947Z,0.38
2022-11-24T16:10:58.442Z,0.29
2022-11-24T16:13:25.990Z,0.26
2022-11-24T16:15:53.715Z,0.28
2022-11-24T16:18:21.262Z,0.31
2022-11-24T16:20:48.985Z,0.33
2022-11-24T16:23:16.478Z,0.29
2022-11-24T16:25:44.004Z,0.25
2022-11-24T16:28:11.677Z,0.24
2022-11-24T16:30:39.389Z,0.18
2022-11-24T16:33:07.282Z,0.15
2022-11-24T16:35:35.014Z,0.14
2022-11-24T16:38:02.548Z,0.18
2022-11-24T16:40:30.305Z,0.21
2022-11-24T16:42:58.424Z,0.22
2022-11-24T16:45:26.100Z,0.25
2022-11-24T16:47:54.037Z,0.26
2022-11-24T16:50:21.576Z,0.30
2022-11-24T16:52:49.121Z,0.34
2022-11-24T16:55:16.939Z,0.34
2022-11-24T16:57:45.112Z,0.33
2022-11-24T17:00:13.374Z,0.35
2022-11-24T17:02:41.010Z,0.46
2022-11-24T17:05:08.942Z,0.52
2022-11-24T17:07:37.022Z,0.56
2022-11-24T17:10:06.041Z,0.58
2022-11-24T17:12:35.428Z,0.62
2022-11-24T17:15:31.146Z,0.65
2022-11-24T17:18:22.207Z,0.63
2022-11-24T17:20:38.999Z,0.57
2022-11-24T17:23:06.554Z,0.48
2022-11-24T17:25:34.092Z,0.43
2022-11-24T17:28:01.628Z,0.41
2022-11-24T17:30:29.227Z,0.38
2022-11-24T17:32:57.164Z,0.37
2022-11-24T17:35:24.682Z,0.38
2022-11-24T17:37:52.274Z,0.40
2022-11-24T17:40:28.391Z,0.45
2022-11-24T17:43:00.509Z,0.54
2022-11-24T17:45:29.331Z,0.62
2022-11-24T17:47:59.710Z,0.67
2022-11-24T17:50:27.366Z,0.67
2022-11-24T17:52:55.222Z,0.65
2022-11-24T17:55:22.755Z,0.61
2022-11-24T17:57:50.514Z,0.64
2022-11-24T18:00:18.402Z,0.69
2022-11-24T18:02:45.935Z,0.68
2022-11-24T18:05:13.779Z,0.67
2022-11-24T18:07:41.376Z,0.68
2022-11-24T18:10:09.236Z,0.70
2022-11-24T18:12:36.806Z,0.69
2022-11-24T18:15:04.988Z,0.68
2022-11-24T18:17:32.540Z,0.68
2022-11-24T18:20:00.059Z,0.67
2022-11-24T18:22:50.077Z,0.69
2022-11-24T18:25:15.354Z,0.66
2022-11-24T18:27:42.890Z,0.61
2022-11-24T18:30:10.628Z,0.56
2022-11-24T18:32:38.627Z,0.52
2022-11-24T18:35:06.716Z,0.51
2022-11-24T18:37:36.581Z,0.52
2022-11-24T18:40:04.707Z,0.54
2022-11-24T18:42:32.233Z,0.58
2022-11-24T18:44:59.812Z,0.57
2022-11-24T18:47:27.583Z,0.54
2022-11-24T18:49:55.538Z,0.54
2022-11-24T18:52:23.119Z,0.59
2022-11-24T18:54:50.680Z,0.57
2022-11-24T18:57:18.188Z,0.49
2022-11-24T18:59:45.972Z,0.48
2022-11-24T19:02:13.584Z,0.50
2022-11-24T19:04:41.352Z,0.59
2022-11-24T19:07:08.897Z,0.68
2022-11-24T19:09:37.703Z,0.69
2022-11-24T19:12:06.332Z,0.62
2022-11-24T19:14:34.385Z,0.59
2022-11-24T19:17:02.540Z,0.54
2022-11-24T19:19:34.001Z,0.49
2022-11-24T19:22:02.092Z,0.46
2022-11-24T19:24:30.089Z,0.42
2022-11-24T19:26:57.660Z,0.38
2022-11-24T19:29:25.238Z,0.35
2022-11-24T19:31:54.292Z,0.37
2022-11-24T19:34:21.824Z,0.45
2022-11-24T19:36:49.378Z,0.41
2022-11-24T19:39:17.560Z,0.43
2022-11-24T19:41:45.143Z,0.44
2022-11-24T19:44:13.377Z,0.49
2022-11-24T19:46:41.062Z,0.57
2022-11-24T19:49:08.769Z,0.64
2022-11-24T19:51:38.943Z,0.64
2022-11-24T19:54:10.093Z,0.64
2022-11-24T19:56:37.850Z,0.65
2022-11-24T19:59:06.416Z,0.59
2022-11-24T20:01:40.047Z,0.57
2022-11-24T20:04:11.278Z,0.53
2022-11-24T20:06:43.904Z,0.48
2022-11-24T20:09:14.334Z,0.45
2022-11-24T20:11:42.367Z,0.42
2022-11-24T20:14:12.882Z,0.42
2022-11-24T20:16:40.629Z,0.42
2022-11-24T20:19:11.862Z,0.40
2022-11-24T20:21:41.439Z,0.43
2022-11-24T20:24:17.975Z,0.45
2022-11-24T20:26:58.084Z,0.44
2022-11-24T20:29:28.146Z,0.41
2022-11-24T20:31:56.109Z,0.39
2022-11-24T20:34:23.881Z,0.40
2022-11-24T20:36:52.927Z,0.34
2022-11-24T20:39:25.275Z,0.31
2022-11-24T20:41:53.902Z,0.28
2022-11-24T20:44:21.979Z,0.29
2022-11-24T20:46:49.710Z,0.32
2022-11-24T20:49:20.007Z,0.34
2022-11-24T20:51:47.815Z,0.35
2022-11-24T20:54:17.496Z,0.36
2022-11-24T20:56:46.290Z,0.28
2022-11-24T20:59:19.271Z,0.25
2022-11-24T21:01:48.332Z,0.22
2022-11-24T21:04:19.697Z,0.12
2022-11-24T21:06:47.693Z,0.09
2022-11-24T21:09:15.542Z,0.12
2022-11-24T21:11:43.424Z,0.17
2022-11-24T21:14:11.759Z,0.23
2022-11-24T21:16:41.187Z,0.27
2022-11-24T21:19:14.268Z,0.36
2022-11-24T21:21:43.135Z,0.49
2022-11-24T21:24:14.090Z,0.57
2022-11-24T21:26:43.039Z,0.54
2022-11-24T21:29:16.955Z,0.51
2022-11-24T21:31:44.479Z,0.51
2022-11-24T21:34:15.391Z,0.49
2022-11-24T21:36:44.828Z,0.47
2022-11-24T21:39:14.095Z,0.53
2022-11-24T21:41:42.563Z,0.63
2022-11-24T21:44:13.936Z,0.69
2022-11-24T21:46:46.059Z,0.72
2022-11-24T21:49:16.969Z,0.62
2022-11-24T21:51:44.641Z,0.47
2022-11-24T21:54:12.298Z,0.43
2022-11-24T21:56:39.944Z,0.43
2022-11-24T21:59:07.900Z,0.39
2022-11-24T22:01:35.608Z,0.32
2022-11-24T22:04:03.226Z,0.29
2022-11-24T22:06:31.981Z,0.28
2022-11-24T22:08:59.512Z,0.26
2022-11-24T22:11:27.051Z,0.28
2022-11-24T22:13:54.594Z,0.28
2022-11-24T22:16:24.147Z,0.28
2022-11-24T22:18:52.162Z,0.27
2022-11-24T22:21:29.812Z,0.25
2022-11-24T22:23:57.527Z,0.27
2022-11-24T22:26:26.117Z,0.31
2022-11-24T22:28:55.261Z,0.36
2022-11-24T22:31:25.364Z,0.42
2022-11-24T22:33:54.303Z,0.45
2022-11-24T22:36:24.863Z,0.42
2022-11-24T22:39:02.953Z,0.30
2022-11-24T22:41:32.736Z,0.18
2022-11-24T22:44:00.665Z,0.09
2022-11-24T22:46:30.205Z,0.10
2022-11-24T22:48:59.929Z,0.14
2022-11-24T22:51:33.416Z,0.18
2022-11-24T22:54:03.764Z,0.22
2022-11-24T22:56:33.130Z,0.27
2022-11-24T22:59:01.824Z,0.31
2022-11-24T23:01:31.315Z,0.38
2022-11-24T23:03:59.373Z,0.43
2022-11-24T23:06:29.335Z,0.42
2022-11-24T23:08:58.722Z,0.37
2022-11-24T23:11:36.429Z,0.39
2022-11-24T23:14:07.729Z,0.41
2022-11-24T23:16:35.329Z,0.42
2022-11-24T23:19:03.610Z,0.37
2022-11-24T23:21:34.582Z,0.32
2022-11-24T23:24:03.920Z,0.24
2022-11-24T23:26:34.550Z,0.23
2022-11-24T23:29:03.414Z,0.24
2022-11-24T23:31:31.622Z,0.26
2022-11-24T23:34:01.568Z,0.30
2022-11-24T23:36:30.259Z,0.38
2022-11-24T23:39:03.035Z,0.43
2022-11-24T23:41:31.601Z,0.46
2022-11-24T23:43:59.932Z,0.45
2022-11-24T23:46:28.022Z,0.43
2022-11-24T23:48:56.620Z,0.41
2022-11-24T23:51:25.565Z,0.34
2022-11-24T23:53:53.525Z,0.24
2022-11-24T23:56:26.019Z,0.19
2022-11-24T23:58:53.822Z,0.16
